createdAt,value
2018-06-30T00:00:19.036Z,69.55
2018-06-30T00:00:45.173Z,69.84
2018-06-30T00:01:11.309Z,69.78
2018-06-30T00:01:37.450Z,69.84
2018-06-30T00:02:03.616Z,69.78
2018-06-30T00:02:29.761Z,69.45
2018-06-30T00:02:55.898Z,69.74
2018-06-30T00:03:22.039Z,69.93
2018-06-30T00:03:48.177Z,69.93
2018-06-30T00:04:14.343Z,70.06
2018-06-30T00:04:40.485Z,69.87
2018-06-30T00:05:06.628Z,69.68
2018-06-30T00:05:32.767Z,69.64
2018-06-30T00:05:58.909Z,69.55
2018-06-30T00:06:25.052Z,69.55
2018-06-30T00:06:51.202Z,70.03
2018-06-30T00:07:17.361Z,70.03
2018-06-30T00:07:43.501Z,69.55
2018-06-30T00:08:09.646Z,69.74
2018-06-30T00:08:35.776Z,70.13
2018-06-30T00:09:01.917Z,69.93
2018-06-30T00:09:28.056Z,70.22
2018-06-30T00:09:54.195Z,70.32
2018-06-30T00:10:20.360Z,70.51
2018-06-30T00:10:46.472Z,69.74
2018-06-30T00:11:12.613Z,70.13
2018-06-30T00:11:38.760Z,70.13
2018-06-30T00:12:04.903Z,69.74
2018-06-30T00:12:31.038Z,70.03
2018-06-30T00:12:57.204Z,70.03
2018-06-30T00:13:23.346Z,70.32
2018-06-30T00:13:49.484Z,70.7
2018-06-30T00:14:15.620Z,70.61
2018-06-30T00:14:41.758Z,70.13
2018-06-30T00:15:07.915Z,70.03
2018-06-30T00:15:34.065Z,69.84
2018-06-30T00:16:00.205Z,70.13
2018-06-30T00:16:26.354Z,70.42
2018-06-30T00:16:52.524Z,69.93
2018-06-30T00:17:18.668Z,70.22
2018-06-30T00:17:44.828Z,70.03
2018-06-30T00:18:10.974Z,70.03
2018-06-30T00:18:37.112Z,70.22
2018-06-30T00:19:03.259Z,70.03
2018-06-30T00:19:29.396Z,70.03
2018-06-30T00:19:55.563Z,70.22
2018-06-30T00:20:21.705Z,70.61
2018-06-30T00:20:47.893Z,70.51
2018-06-30T00:21:14.041Z,70.51
2018-06-30T00:21:40.180Z,70.51
2018-06-30T00:22:06.316Z,70.42
2018-06-30T00:22:32.457Z,70.32
2018-06-30T00:22:58.599Z,70.13
2018-06-30T00:23:24.740Z,70.7
2018-06-30T00:23:50.887Z,70.7
2018-06-30T00:24:17.024Z,70.7
2018-06-30T00:24:43.166Z,70.61
2018-06-30T00:25:09.304Z,70.22
2018-06-30T00:25:35.494Z,70.42
2018-06-30T00:26:01.625Z,70.42
2018-06-30T00:26:27.787Z,70.61
2018-06-30T00:26:53.935Z,70.51
2018-06-30T00:27:20.079Z,70.22
2018-06-30T00:27:46.209Z,70.51
2018-06-30T00:28:12.352Z,70.51
2018-06-30T00:28:38.495Z,70.03
2018-06-30T00:29:04.639Z,70.61
2018-06-30T00:29:30.769Z,70.7
2018-06-30T00:29:56.904Z,71.28
2018-06-30T00:30:23.049Z,71.09
2018-06-30T00:30:49.185Z,71.19
2018-06-30T00:31:15.331Z,71.19
2018-06-30T00:31:41.468Z,70.9
2018-06-30T00:32:07.618Z,71
2018-06-30T00:32:33.752Z,70.61
2018-06-30T00:32:59.890Z,70.86
2018-06-30T00:33:26.033Z,71.06
2018-06-30T00:33:52.192Z,71.25
2018-06-30T00:34:18.333Z,71.15
2018-06-30T00:34:44.475Z,71.64
2018-06-30T00:35:10.634Z,71.15
2018-06-30T00:35:36.780Z,71.48
2018-06-30T00:36:02.919Z,71.28
2018-06-30T00:36:29.057Z,71.19
2018-06-30T00:36:55.195Z,71.48
2018-06-30T00:37:21.335Z,71.19
2018-06-30T00:37:47.484Z,71.09
2018-06-30T00:38:13.651Z,70.8
2018-06-30T00:38:39.761Z,70.7
2018-06-30T00:39:05.919Z,70.8
2018-06-30T00:39:32.063Z,71.09
2018-06-30T00:39:58.199Z,70.9
2018-06-30T00:40:24.337Z,70.8
2018-06-30T00:40:50.476Z,71
2018-06-30T00:41:16.639Z,70.9
2018-06-30T00:41:42.779Z,71
2018-06-30T00:42:08.937Z,71
2018-06-30T00:42:35.080Z,71.09
2018-06-30T00:43:01.218Z,71.09
2018-06-30T00:43:27.360Z,70.8
2018-06-30T00:43:53.553Z,70.67
2018-06-30T00:44:19.718Z,71.09
2018-06-30T00:44:45.876Z,71.15
2018-06-30T00:45:12.021Z,71.92
2018-06-30T00:45:38.165Z,71.73
2018-06-30T00:46:04.334Z,71.54
2018-06-30T00:46:30.478Z,71.54
2018-06-30T00:46:56.665Z,71.54
2018-06-30T00:47:22.798Z,71.73
2018-06-30T00:47:48.945Z,71.73
2018-06-30T00:48:15.077Z,71.77
2018-06-30T00:48:41.291Z,71.25
2018-06-30T00:49:07.385Z,71.73
2018-06-30T00:49:33.529Z,71.92
2018-06-30T00:49:59.662Z,71.44
2018-06-30T00:50:25.837Z,71.54
2018-06-30T00:50:52.008Z,71.64
2018-06-30T00:51:18.151Z,71.83
2018-06-30T00:51:44.297Z,71.38
2018-06-30T00:52:10.436Z,71.44
2018-06-30T00:52:36.596Z,71.73
2018-06-30T00:53:02.738Z,72.12
2018-06-30T00:53:28.879Z,72.02
2018-06-30T00:53:55.011Z,71.83
2018-06-30T00:54:21.173Z,71.73
2018-06-30T00:54:47.307Z,71.83
2018-06-30T00:55:13.448Z,71.83
2018-06-30T00:55:39.574Z,71.54
2018-06-30T00:56:05.709Z,71.44
2018-06-30T00:56:31.878Z,71.64
2018-06-30T00:56:58.026Z,71.64
2018-06-30T00:57:24.187Z,71.73
2018-06-30T00:57:50.328Z,71.64
2018-06-30T00:58:16.497Z,72.02
2018-06-30T00:58:42.637Z,72.02
2018-06-30T00:59:08.781Z,71.64
2018-06-30T00:59:34.925Z,71.54
2018-06-30T01:00:01.104Z,72.02
2018-06-30T01:00:27.259Z,71.92
2018-06-30T01:00:53.426Z,71.64
2018-06-30T01:01:19.569Z,71.92
2018-06-30T01:01:45.730Z,71.83
2018-06-30T01:02:11.865Z,72.31
2018-06-30T01:02:38.007Z,72.31
2018-06-30T01:03:04.168Z,72.5
2018-06-30T01:03:30.313Z,72.21
2018-06-30T01:03:56.454Z,72.21
2018-06-30T01:04:22.598Z,72.02
2018-06-30T01:04:48.736Z,72.12
2018-06-30T01:05:14.874Z,72.21
2018-06-30T01:05:41.015Z,72.21
2018-06-30T01:06:07.165Z,71.92
2018-06-30T01:06:33.295Z,71.64
2018-06-30T01:06:59.436Z,71.73
2018-06-30T01:07:25.572Z,71.73
2018-06-30T01:07:51.765Z,71.64
2018-06-30T01:08:17.905Z,71.64
2018-06-30T01:08:44.044Z,71.83
2018-06-30T01:09:10.171Z,72.02
2018-06-30T01:09:36.339Z,71.64
2018-06-30T01:10:02.479Z,71.54
2018-06-30T01:10:28.617Z,71.73
2018-06-30T01:10:54.755Z,71.73
2018-06-30T01:11:20.896Z,71.92
2018-06-30T01:11:47.033Z,71.83
2018-06-30T01:12:13.175Z,71.92
2018-06-30T01:12:39.306Z,72.31
2018-06-30T01:13:05.446Z,72.21
2018-06-30T01:13:31.590Z,72.02
2018-06-30T01:13:57.735Z,71.83
2018-06-30T01:14:23.873Z,72.41
2018-06-30T01:14:50.017Z,72.21
2018-06-30T01:15:16.160Z,72.21
2018-06-30T01:15:42.300Z,72.21
2018-06-30T01:16:08.460Z,72.21
2018-06-30T01:16:34.603Z,72.69
2018-06-30T01:17:00.746Z,72.41
2018-06-30T01:17:26.886Z,71.92
2018-06-30T01:17:53.068Z,71.73
2018-06-30T01:18:19.209Z,72.41
2018-06-30T01:18:45.347Z,72.27
2018-06-30T01:19:11.484Z,72.18
2018-06-30T01:19:37.626Z,71.98
2018-06-30T01:20:03.766Z,72.41
2018-06-30T01:20:29.905Z,72.08
2018-06-30T01:20:56.066Z,71.98
2018-06-30T01:21:22.196Z,72.27
2018-06-30T01:21:48.339Z,72.27
2018-06-30T01:22:14.475Z,72.18
2018-06-30T01:22:40.619Z,72.18
2018-06-30T01:23:06.756Z,71.98
2018-06-30T01:23:32.898Z,72.56
2018-06-30T01:23:59.057Z,72.75
2018-06-30T01:24:25.203Z,72.95
2018-06-30T01:24:51.334Z,72.66
2018-06-30T01:25:17.478Z,72.56
2018-06-30T01:25:43.613Z,72.66
2018-06-30T01:26:09.759Z,72.47
2018-06-30T01:26:35.923Z,72.95
2018-06-30T01:27:02.082Z,72.85
2018-06-30T01:27:28.217Z,72.85
2018-06-30T01:27:54.363Z,73.43
2018-06-30T01:28:20.520Z,73.14
2018-06-30T01:28:46.691Z,73.24
2018-06-30T01:29:12.857Z,73.33
2018-06-30T01:29:38.994Z,73.05
2018-06-30T01:30:05.127Z,73.05
2018-06-30T01:30:31.272Z,73.05
2018-06-30T01:30:57.440Z,73.05
2018-06-30T01:31:23.580Z,73.24
2018-06-30T01:31:49.713Z,73.05
2018-06-30T01:32:15.862Z,72.95
2018-06-30T01:32:41.997Z,72.27
2018-06-30T01:33:08.156Z,72.47
2018-06-30T01:33:34.314Z,72.27
2018-06-30T01:34:00.457Z,72.27
2018-06-30T01:34:26.598Z,72.66
2018-06-30T01:34:52.737Z,72.75
2018-06-30T01:35:18.877Z,72.75
2018-06-30T01:35:45.017Z,72.47
2018-06-30T01:36:11.205Z,72.85
2018-06-30T01:36:37.347Z,73.05
2018-06-30T01:37:03.482Z,73.14
2018-06-30T01:37:29.623Z,73.24
2018-06-30T01:37:55.762Z,73.05
2018-06-30T01:38:21.908Z,73.05
2018-06-30T01:38:48.046Z,73.43
2018-06-30T01:39:14.188Z,73.14
2018-06-30T01:39:40.322Z,73.14
2018-06-30T01:40:06.468Z,73.33
2018-06-30T01:40:32.626Z,72.85
2018-06-30T01:40:58.767Z,73.05
2018-06-30T01:41:24.936Z,73.14
2018-06-30T01:41:51.076Z,73.05
2018-06-30T01:42:17.207Z,73.05
2018-06-30T01:42:43.356Z,73.24
2018-06-30T01:43:09.498Z,73.24
2018-06-30T01:43:35.639Z,73.24
2018-06-30T01:44:01.787Z,73.43
2018-06-30T01:44:27.949Z,73.62
2018-06-30T01:44:54.093Z,73.39
2018-06-30T01:45:20.262Z,73.43
2018-06-30T01:45:46.402Z,73.43
2018-06-30T01:46:12.544Z,73.43
2018-06-30T01:46:38.686Z,73.3
2018-06-30T01:47:04.878Z,73.39
2018-06-30T01:47:31.011Z,73.33
2018-06-30T01:47:57.155Z,73.39
2018-06-30T01:48:23.289Z,73.62
2018-06-30T01:48:49.431Z,73.33
2018-06-30T01:49:15.571Z,73.24
2018-06-30T01:49:41.717Z,73.62
2018-06-30T01:50:07.853Z,73.3
2018-06-30T01:50:34.021Z,73.78
2018-06-30T01:51:00.158Z,73.78
2018-06-30T01:51:26.303Z,73.43
2018-06-30T01:51:52.443Z,73.53
2018-06-30T01:52:18.598Z,73.68
2018-06-30T01:52:44.733Z,73.39
2018-06-30T01:53:10.877Z,73.68
2018-06-30T01:53:37.022Z,74.07
2018-06-30T01:54:03.161Z,73.3
2018-06-30T01:54:29.326Z,73.33
2018-06-30T01:54:55.486Z,73.43
2018-06-30T01:55:21.622Z,73.3
2018-06-30T01:55:47.765Z,73.33
2018-06-30T01:56:13.930Z,73.82
2018-06-30T01:56:40.073Z,73.24
2018-06-30T01:57:06.235Z,73.43
2018-06-30T01:57:32.377Z,73.62
2018-06-30T01:57:58.518Z,73.68
2018-06-30T01:58:24.655Z,73.58
2018-06-30T01:58:50.785Z,73.39
2018-06-30T01:59:16.925Z,73.88
2018-06-30T01:59:43.067Z,74.07
2018-06-30T02:00:09.217Z,74.36
2018-06-30T02:00:35.355Z,74.16
2018-06-30T02:01:01.497Z,74.26
2018-06-30T02:01:27.636Z,74.45
2018-06-30T02:01:53.783Z,74.55
2018-06-30T02:02:19.919Z,74.36
2018-06-30T02:02:46.087Z,74.36
2018-06-30T02:03:12.248Z,74.16
2018-06-30T02:03:38.413Z,74.36
2018-06-30T02:04:04.557Z,74.26
2018-06-30T02:04:30.697Z,74.16
2018-06-30T02:04:56.842Z,74.16
2018-06-30T02:05:22.984Z,74.36
2018-06-30T02:05:49.130Z,74.16
2018-06-30T02:06:15.275Z,73.97
2018-06-30T02:06:41.404Z,74.07
2018-06-30T02:07:07.547Z,74.36
2018-06-30T02:07:33.730Z,74.07
2018-06-30T02:07:59.917Z,74.36
2018-06-30T02:08:26.099Z,74.26
2018-06-30T02:08:52.238Z,74.26
2018-06-30T02:09:18.371Z,74.07
2018-06-30T02:09:44.514Z,74.26
2018-06-30T02:10:10.676Z,74.16
2018-06-30T02:10:36.818Z,73.97
2018-06-30T02:11:02.950Z,74.45
2018-06-30T02:11:29.099Z,74.45
2018-06-30T02:11:55.267Z,74.36
2018-06-30T02:12:21.405Z,74.16
2018-06-30T02:12:47.547Z,74.45
2018-06-30T02:13:13.686Z,74.07
2018-06-30T02:13:39.827Z,74.26
2018-06-30T02:14:05.991Z,74.36
2018-06-30T02:14:32.127Z,74.45
2018-06-30T02:14:58.268Z,74.36
2018-06-30T02:15:24.416Z,74.07
2018-06-30T02:15:50.553Z,74.26
2018-06-30T02:16:16.686Z,73.78
2018-06-30T02:16:42.827Z,73.58
2018-06-30T02:17:08.972Z,73.39
2018-06-30T02:17:35.112Z,73.39
2018-06-30T02:18:01.253Z,73.78
2018-06-30T02:18:27.390Z,73.88
2018-06-30T02:18:53.599Z,73.78
2018-06-30T02:19:19.724Z,73.49
2018-06-30T02:19:45.886Z,74.26
2018-06-30T02:20:12.027Z,73.97
2018-06-30T02:20:38.174Z,74.45
2018-06-30T02:21:04.313Z,74.45
2018-06-30T02:21:30.501Z,74.36
2018-06-30T02:21:56.639Z,74.26
2018-06-30T02:22:22.776Z,74.26
2018-06-30T02:22:48.919Z,74.26
2018-06-30T02:23:15.064Z,74.26
2018-06-30T02:23:41.227Z,74.26
2018-06-30T02:24:07.366Z,73.88
2018-06-30T02:24:33.512Z,73.2
2018-06-30T02:24:59.655Z,73.39
2018-06-30T02:25:25.791Z,73.3
2018-06-30T02:25:51.927Z,73.78
2018-06-30T02:26:18.071Z,73.49
2018-06-30T02:26:44.211Z,73.88
2018-06-30T02:27:10.352Z,73.49
2018-06-30T02:27:36.492Z,73.3
2018-06-30T02:28:02.626Z,73.39
2018-06-30T02:28:28.769Z,73.3
2018-06-30T02:28:54.912Z,73.58
2018-06-30T02:29:21.048Z,73.68
2018-06-30T02:29:47.191Z,73.58
2018-06-30T02:30:13.357Z,74.16
2018-06-30T02:30:39.540Z,74.26
2018-06-30T02:31:05.759Z,74.07
2018-06-30T02:31:31.938Z,74.36
2018-06-30T02:31:58.096Z,73.88
2018-06-30T02:32:24.255Z,73.97
2018-06-30T02:32:50.444Z,73.88
2018-06-30T02:33:16.607Z,73.88
2018-06-30T02:33:42.783Z,74.07
2018-06-30T02:34:08.994Z,74.36
2018-06-30T02:34:35.130Z,74.45
2018-06-30T02:35:01.303Z,73.78
2018-06-30T02:35:27.445Z,74.45
2018-06-30T02:35:53.616Z,74.36
2018-06-30T02:36:19.773Z,74.07
2018-06-30T02:36:45.960Z,74.74
2018-06-30T02:37:12.108Z,74.16
2018-06-30T02:37:38.246Z,74.16
2018-06-30T02:38:04.383Z,74.16
2018-06-30T02:38:30.533Z,74.07
2018-06-30T02:38:56.714Z,74.26
2018-06-30T02:39:22.905Z,74.07
2018-06-30T02:39:49.057Z,74.16
2018-06-30T02:40:15.194Z,74.26
2018-06-30T02:40:41.376Z,74.26
2018-06-30T02:41:07.521Z,74.36
2018-06-30T02:41:33.670Z,74.26
2018-06-30T02:41:59.835Z,73.68
2018-06-30T02:42:25.997Z,74.26
2018-06-30T02:42:52.141Z,73.68
2018-06-30T02:43:18.302Z,74.07
2018-06-30T02:43:44.472Z,73.68
2018-06-30T02:44:10.692Z,74.36
2018-06-30T02:44:36.875Z,74.16
2018-06-30T02:45:03.012Z,74.26
2018-06-30T02:45:29.193Z,74.26
2018-06-30T02:45:55.418Z,74.26
2018-06-30T02:46:21.559Z,74.32
2018-06-30T02:46:47.694Z,74.45
2018-06-30T02:47:13.840Z,74.55
2018-06-30T02:47:40.003Z,74.16
2018-06-30T02:48:06.167Z,74.36
2018-06-30T02:48:32.307Z,74.16
2018-06-30T02:48:58.510Z,74.07
2018-06-30T02:49:24.656Z,74.16
2018-06-30T02:49:50.795Z,74.26
2018-06-30T02:50:16.935Z,73.78
2018-06-30T02:50:43.121Z,73.88
2018-06-30T02:51:09.313Z,74.16
2018-06-30T02:51:35.496Z,73.88
2018-06-30T02:52:01.658Z,74.16
2018-06-30T02:52:27.850Z,74.16
2018-06-30T02:52:54.036Z,73.78
2018-06-30T02:53:20.171Z,73.78
2018-06-30T02:53:46.322Z,73.3
2018-06-30T02:54:12.483Z,73.49
2018-06-30T02:54:38.645Z,73.68
2018-06-30T02:55:04.784Z,73.49
2018-06-30T02:55:30.929Z,73.39
2018-06-30T02:55:57.072Z,73.49
2018-06-30T02:56:23.211Z,74.16
2018-06-30T02:56:49.376Z,74.26
2018-06-30T02:57:15.544Z,73.97
2018-06-30T02:57:41.687Z,73.97
2018-06-30T02:58:07.855Z,74.36
2018-06-30T02:58:34.016Z,74.26
2018-06-30T02:59:00.211Z,74.55
2018-06-30T02:59:26.368Z,74.22
2018-06-30T02:59:52.512Z,74.22
2018-06-30T03:00:18.703Z,74.22
2018-06-30T03:00:44.866Z,74.41
2018-06-30T03:01:11.005Z,74.61
2018-06-30T03:01:37.162Z,74.9
2018-06-30T03:02:03.421Z,74.61
2018-06-30T03:02:29.699Z,74.61
2018-06-30T03:02:55.985Z,74.71
2018-06-30T03:03:22.302Z,74.71
2018-06-30T03:03:48.597Z,74.61
2018-06-30T03:04:15.039Z,74.22
2018-06-30T03:04:41.442Z,73.78
2018-06-30T03:05:07.819Z,74.03
2018-06-30T03:05:34.203Z,74.13
2018-06-30T03:06:00.501Z,73.65
2018-06-30T03:06:26.723Z,74.13
2018-06-30T03:06:52.972Z,74.13
2018-06-30T03:07:19.204Z,74.22
2018-06-30T03:07:45.623Z,74.13
2018-06-30T03:08:12.029Z,74.03
2018-06-30T03:08:38.382Z,74.32
2018-06-30T03:09:04.851Z,74.41
2018-06-30T03:09:31.162Z,74.41
2018-06-30T03:09:57.470Z,74.41
2018-06-30T03:10:23.917Z,74.51
2018-06-30T03:10:50.141Z,74.61
2018-06-30T03:11:16.493Z,74.71
2018-06-30T03:11:42.701Z,74.51
2018-06-30T03:12:08.852Z,74.71
2018-06-30T03:12:35.008Z,74.71
2018-06-30T03:13:01.179Z,74.41
2018-06-30T03:13:27.342Z,74.61
2018-06-30T03:13:53.505Z,74.41
2018-06-30T03:14:19.692Z,74.32
2018-06-30T03:14:45.831Z,74.9
2018-06-30T03:15:12.001Z,74.8
2018-06-30T03:15:38.141Z,74.22
2018-06-30T03:16:04.357Z,74.61
2018-06-30T03:16:30.538Z,74.71
2018-06-30T03:16:56.705Z,75.09
2018-06-30T03:17:22.869Z,74.51
2018-06-30T03:17:49.042Z,74.71
2018-06-30T03:18:15.179Z,74.71
2018-06-30T03:18:41.336Z,74.9
2018-06-30T03:19:07.475Z,75.09
2018-06-30T03:19:33.641Z,74.8
2018-06-30T03:19:59.780Z,74.8
2018-06-30T03:20:25.923Z,75.09
2018-06-30T03:20:52.060Z,74.71
2018-06-30T03:21:18.270Z,74.71
2018-06-30T03:21:44.424Z,74.71
2018-06-30T03:22:10.558Z,74.9
2018-06-30T03:22:36.700Z,74.99
2018-06-30T03:23:02.838Z,75.48
2018-06-30T03:23:29.010Z,75.38
2018-06-30T03:23:55.146Z,75.28
2018-06-30T03:24:21.278Z,75.09
2018-06-30T03:24:47.426Z,75.19
2018-06-30T03:25:13.597Z,74.9
2018-06-30T03:25:39.760Z,74.71
2018-06-30T03:26:05.901Z,74.22
2018-06-30T03:26:32.036Z,74.61
2018-06-30T03:26:58.192Z,74.71
2018-06-30T03:27:24.323Z,74.74
2018-06-30T03:27:50.485Z,73.88
2018-06-30T03:28:16.626Z,74.36
2018-06-30T03:28:42.758Z,74.36
2018-06-30T03:29:08.904Z,74.26
2018-06-30T03:29:35.049Z,74.07
2018-06-30T03:30:01.188Z,74.26
2018-06-30T03:30:27.373Z,74.45
2018-06-30T03:30:53.529Z,74.07
2018-06-30T03:31:19.761Z,74.55
2018-06-30T03:31:46.004Z,73.68
2018-06-30T03:32:12.023Z,73.97
2018-06-30T03:32:38.187Z,73.88
2018-06-30T03:33:04.326Z,73.39
2018-06-30T03:33:30.461Z,73.49
2018-06-30T03:33:56.599Z,73.39
2018-06-30T03:34:22.736Z,73.39
2018-06-30T03:34:48.879Z,73.49
2018-06-30T03:35:15.022Z,73.78
2018-06-30T03:35:41.164Z,73.58
2018-06-30T03:36:07.292Z,74.36
2018-06-30T03:36:33.486Z,73.78
2018-06-30T03:36:59.606Z,73.58
2018-06-30T03:37:25.744Z,73.68
2018-06-30T03:37:51.904Z,73.2
2018-06-30T03:38:18.040Z,73.39
2018-06-30T03:38:44.191Z,73.49
2018-06-30T03:39:10.343Z,73.68
2018-06-30T03:39:36.534Z,73.88
2018-06-30T03:40:02.674Z,73.46
2018-06-30T03:40:28.844Z,74.51
2018-06-30T03:40:54.982Z,74.41
2018-06-30T03:41:21.185Z,74.45
2018-06-30T03:41:47.328Z,74.26
2018-06-30T03:42:13.460Z,74.13
2018-06-30T03:42:39.638Z,74.36
2018-06-30T03:43:05.807Z,74.36
2018-06-30T03:43:31.948Z,74.07
2018-06-30T03:43:58.119Z,74.36
2018-06-30T03:44:24.259Z,74.36
2018-06-30T03:44:50.396Z,74.26
2018-06-30T03:45:16.571Z,73.78
2018-06-30T03:45:42.729Z,73.78
2018-06-30T03:46:08.900Z,73.78
2018-06-30T03:46:35.018Z,73.39
2018-06-30T03:47:01.189Z,73.49
2018-06-30T03:47:27.323Z,73.58
2018-06-30T03:47:53.462Z,73.68
2018-06-30T03:48:19.600Z,73.3
2018-06-30T03:48:45.746Z,73.01
2018-06-30T03:49:11.918Z,73.58
2018-06-30T03:49:38.473Z,72.91
2018-06-30T03:50:04.797Z,72.81
2018-06-30T03:50:30.956Z,73.2
2018-06-30T03:50:57.128Z,73.01
2018-06-30T03:51:23.263Z,73.1
2018-06-30T03:51:49.456Z,73.49
2018-06-30T03:52:15.608Z,73.49
2018-06-30T03:52:41.793Z,73.2
2018-06-30T03:53:08.325Z,73.49
2018-06-30T03:53:34.583Z,73.2
2018-06-30T03:54:00.932Z,73.49
2018-06-30T03:54:27.119Z,73.01
2018-06-30T03:54:53.316Z,73.01
2018-06-30T03:55:19.487Z,73.01
2018-06-30T03:55:45.897Z,72.72
2018-06-30T03:56:12.221Z,72.81
2018-06-30T03:56:38.365Z,73.1
2018-06-30T03:57:04.677Z,73.1
2018-06-30T03:57:30.822Z,73.1
2018-06-30T03:57:56.965Z,72.72
2018-06-30T03:58:23.209Z,72.72
2018-06-30T03:58:49.383Z,72.72
2018-06-30T03:59:15.667Z,72.72
2018-06-30T03:59:41.933Z,73.01
2018-06-30T04:00:08.175Z,73.1
2018-06-30T04:00:34.471Z,72.91
2018-06-30T04:01:00.808Z,73.1
2018-06-30T04:01:26.895Z,72.81
2018-06-30T04:01:53.110Z,72.72
2018-06-30T04:02:19.474Z,72.33
2018-06-30T04:02:45.737Z,72.63
2018-06-30T04:03:12.066Z,72.53
2018-06-30T04:03:38.498Z,72.91
2018-06-30T04:04:04.581Z,72.63
2018-06-30T04:04:30.723Z,72.91
2018-06-30T04:04:56.859Z,72.53
2018-06-30T04:05:23.212Z,73.01
2018-06-30T04:05:49.307Z,73.01
2018-06-30T04:06:15.565Z,73.1
2018-06-30T04:06:41.721Z,72.91
2018-06-30T04:07:07.890Z,72.33
2018-06-30T04:07:34.156Z,72.72
2018-06-30T04:08:00.627Z,73.1
2018-06-30T04:08:26.948Z,72.91
2018-06-30T04:08:53.095Z,72.63
2018-06-30T04:09:19.282Z,72.72
2018-06-30T04:09:45.516Z,72.53
2018-06-30T04:10:11.681Z,72.05
2018-06-30T04:10:38.062Z,73.1
2018-06-30T04:11:04.248Z,72.81
2018-06-30T04:11:30.437Z,72.72
2018-06-30T04:11:56.597Z,72.33
2018-06-30T04:12:22.817Z,72.33
2018-06-30T04:12:49.213Z,72.63
2018-06-30T04:13:15.424Z,72.63
2018-06-30T04:13:41.598Z,72.63
2018-06-30T04:14:07.960Z,72.53
2018-06-30T04:14:34.093Z,72.53
2018-06-30T04:15:00.256Z,72.53
2018-06-30T04:15:26.439Z,71.95
2018-06-30T04:15:52.672Z,71.76
2018-06-30T04:16:18.871Z,72.33
2018-06-30T04:16:45.224Z,72.33
2018-06-30T04:17:11.474Z,72.14
2018-06-30T04:17:37.639Z,71.76
2018-06-30T04:18:03.809Z,72.05
2018-06-30T04:18:29.951Z,72.05
2018-06-30T04:18:56.110Z,71.95
2018-06-30T04:19:22.265Z,72.63
2018-06-30T04:19:48.459Z,72.05
2018-06-30T04:20:14.742Z,71.76
2018-06-30T04:20:40.909Z,72.14
2018-06-30T04:21:07.231Z,71.85
2018-06-30T04:21:33.492Z,71.95
2018-06-30T04:21:59.899Z,72.37
2018-06-30T04:22:25.938Z,72.05
2018-06-30T04:22:52.077Z,72.05
2018-06-30T04:23:18.264Z,71.95
2018-06-30T04:23:44.446Z,72.05
2018-06-30T04:24:10.827Z,71.95
2018-06-30T04:24:36.994Z,72.05
2018-06-30T04:25:03.188Z,72.05
2018-06-30T04:25:29.408Z,72.14
2018-06-30T04:25:55.577Z,71.85
2018-06-30T04:26:21.708Z,71.95
2018-06-30T04:26:48.107Z,72.24
2018-06-30T04:27:14.407Z,72.63
2018-06-30T04:27:40.515Z,72.14
2018-06-30T04:28:06.656Z,72.14
2018-06-30T04:28:32.801Z,72.24
2018-06-30T04:28:58.947Z,72.53
2018-06-30T04:29:25.083Z,72.43
2018-06-30T04:29:51.230Z,72.72
2018-06-30T04:30:17.362Z,72.63
2018-06-30T04:30:43.517Z,72.63
2018-06-30T04:31:09.650Z,72.72
2018-06-30T04:31:35.792Z,72.63
2018-06-30T04:32:01.928Z,72.63
2018-06-30T04:32:28.077Z,72.63
2018-06-30T04:32:54.236Z,72.33
2018-06-30T04:33:20.384Z,72.05
2018-06-30T04:33:46.548Z,72.05
2018-06-30T04:34:12.689Z,72.05
2018-06-30T04:34:38.828Z,72.05
2018-06-30T04:35:04.989Z,71.95
2018-06-30T04:35:31.152Z,72.24
2018-06-30T04:35:57.315Z,72.72
2018-06-30T04:36:23.460Z,72.43
2018-06-30T04:36:49.623Z,72.3
2018-06-30T04:37:15.789Z,73.01
2018-06-30T04:37:41.920Z,73.07
2018-06-30T04:38:08.064Z,72.68
2018-06-30T04:38:34.201Z,73.26
2018-06-30T04:39:00.347Z,73.74
2018-06-30T04:39:26.484Z,73.16
2018-06-30T04:39:52.631Z,73.07
2018-06-30T04:40:18.767Z,72.68
2018-06-30T04:40:44.906Z,73.01
2018-06-30T04:41:11.044Z,72.63
2018-06-30T04:41:37.189Z,72.88
2018-06-30T04:42:03.331Z,72.97
2018-06-30T04:42:29.471Z,72.91
2018-06-30T04:42:55.603Z,72.33
2018-06-30T04:43:21.743Z,72.14
2018-06-30T04:43:47.885Z,72.14
2018-06-30T04:44:14.020Z,71.66
2018-06-30T04:44:40.165Z,71.7
2018-06-30T04:45:06.336Z,71.02
2018-06-30T04:45:32.467Z,70.19
2018-06-30T04:45:58.624Z,69.71
2018-06-30T04:46:24.786Z,68.87
2018-06-30T04:46:50.941Z,68.01
2018-06-30T04:47:17.081Z,67.62
2018-06-30T04:47:43.227Z,66.49
2018-06-30T04:48:09.376Z,66.4
2018-06-30T04:48:35.516Z,65.17
2018-06-30T04:49:01.702Z,64.5
2018-06-30T04:49:27.841Z,63.66
2018-06-30T04:49:54.007Z,63.47
2018-06-30T04:50:20.187Z,62.73
2018-06-30T04:50:46.297Z,62.53
2018-06-30T04:51:12.435Z,61.4
2018-06-30T04:51:38.576Z,60.53
2018-06-30T04:52:04.707Z,59.79
2018-06-30T04:52:30.854Z,59.4
2018-06-30T04:52:56.994Z,58.72
2018-06-30T04:53:23.134Z,57.98
2018-06-30T04:53:49.297Z,58.17
2018-06-30T04:54:15.496Z,57.69
2018-06-30T04:54:41.635Z,57.3
2018-06-30T04:55:07.774Z,56.75
2018-06-30T04:55:33.928Z,57.53
2018-06-30T04:56:00.064Z,56.65
2018-06-30T04:56:26.208Z,56.29
2018-06-30T04:56:52.343Z,55.42
2018-06-30T04:57:18.490Z,55.32
2018-06-30T04:57:44.644Z,55.32
2018-06-30T04:58:10.783Z,54.86
2018-06-30T04:58:36.920Z,54.77
2018-06-30T04:59:03.066Z,53.83
2018-06-30T04:59:29.207Z,52.86
2018-06-30T04:59:55.344Z,52.69
2018-06-30T05:00:21.511Z,51.91
2018-06-30T05:00:47.674Z,51.81
2018-06-30T05:01:13.809Z,51.35
2018-06-30T05:01:39.956Z,51.16
2018-06-30T05:02:06.103Z,50.68
2018-06-30T05:02:32.243Z,50.19
2018-06-30T05:02:58.403Z,50.02
2018-06-30T05:03:24.539Z,49.15
2018-06-30T05:03:50.679Z,49.15
2018-06-30T05:04:16.818Z,49.15
2018-06-30T05:04:42.964Z,49.44
2018-06-30T05:05:09.107Z,49.8
2018-06-30T05:05:35.278Z,49.99
2018-06-30T05:06:01.424Z,49.99
2018-06-30T05:06:27.560Z,50.09
2018-06-30T05:06:53.710Z,49.44
2018-06-30T05:07:19.868Z,49.24
2018-06-30T05:07:46.034Z,48.88
2018-06-30T05:08:12.194Z,48.2
2018-06-30T05:08:38.342Z,47.61
2018-06-30T05:09:04.487Z,47.81
2018-06-30T05:09:30.621Z,47.64
2018-06-30T05:09:56.759Z,47.81
2018-06-30T05:10:22.901Z,47.78
2018-06-30T05:10:49.046Z,48.08
2018-06-30T05:11:15.206Z,48.93
2018-06-30T05:11:41.348Z,49.12
2018-06-30T05:12:07.493Z,49.51
2018-06-30T05:12:33.638Z,49.68
2018-06-30T05:12:59.771Z,50.36
2018-06-30T05:13:25.929Z,50.56
2018-06-30T05:13:52.089Z,49.58
2018-06-30T05:14:18.230Z,49.39
2018-06-30T05:14:44.370Z,49.58
2018-06-30T05:15:10.532Z,50.62
2018-06-30T05:15:36.676Z,51.11
2018-06-30T05:16:02.813Z,50.82
2018-06-30T05:16:28.960Z,50.99
2018-06-30T05:16:55.098Z,51.18
2018-06-30T05:17:21.245Z,51.76
2018-06-30T05:17:47.389Z,51.96
2018-06-30T05:18:13.531Z,51.57
2018-06-30T05:18:39.672Z,51.96
2018-06-30T05:19:05.813Z,51.54
2018-06-30T05:19:31.951Z,52.8
2018-06-30T05:19:58.101Z,52.61
2018-06-30T05:20:24.239Z,52.71
2018-06-30T05:20:50.377Z,52.42
2018-06-30T05:21:16.523Z,52.51
2018-06-30T05:21:42.661Z,52.87
2018-06-30T05:22:08.820Z,53.26
2018-06-30T05:22:34.985Z,53.85
2018-06-30T05:23:01.122Z,53.53
2018-06-30T05:23:27.262Z,53.91
2018-06-30T05:23:53.440Z,54.01
2018-06-30T05:24:19.576Z,54.01
2018-06-30T05:24:45.722Z,54.11
2018-06-30T05:25:11.902Z,54.3
2018-06-30T05:25:38.049Z,54.75
2018-06-30T05:26:04.184Z,54.95
2018-06-30T05:26:30.330Z,55.05
2018-06-30T05:26:56.467Z,55.41
2018-06-30T05:27:22.645Z,55.99
2018-06-30T05:27:48.784Z,56.63
2018-06-30T05:28:14.920Z,56.83
2018-06-30T05:28:41.068Z,57.31
2018-06-30T05:29:07.212Z,57.41
2018-06-30T05:29:33.349Z,57.7
2018-06-30T05:29:59.494Z,57.51
2018-06-30T05:30:25.659Z,57.6
2018-06-30T05:30:51.801Z,57.48
2018-06-30T05:31:17.970Z,57.96
2018-06-30T05:31:44.110Z,57.87
2018-06-30T05:32:10.256Z,58.25
2018-06-30T05:32:36.396Z,58.64
2018-06-30T05:33:02.536Z,58.54
2018-06-30T05:33:28.817Z,59.02
2018-06-30T05:33:54.885Z,58.93
2018-06-30T05:34:21.045Z,58.64
2018-06-30T05:34:47.186Z,58.93
2018-06-30T05:35:13.326Z,58.9
2018-06-30T05:35:39.476Z,59.19
2018-06-30T05:36:05.621Z,59.09
2018-06-30T05:36:31.754Z,59.19
2018-06-30T05:36:57.888Z,59
2018-06-30T05:37:24.036Z,59.19
2018-06-30T05:37:50.170Z,59.19
2018-06-30T05:38:16.343Z,59